首页
METAR-TAF:

METAR-TAF

机场 :

珀斯機場

珀斯, 澳大利亚

纬度: 31-56S, 经度: 115-57E, 海拔: 20米

当前天气观测

该预报发布于32分钟前的16:00 UTC
风速10节,风向南转南东
温度 29°C
湿度 25%
气压 1013 hPa
能见度10公里或以上
1500米以下无云,无积雨云

METAR: YPPH 131600Z 15010KT CAVOK 29/07 Q1013 FM1600 MOD TURB BLW 3000FT TL1800

时间: 00:32 (16:32 UTC)

预报

该预报发布于5小时和19分钟前的11:13 UTC
预报有效从13日的 12点(UTC)到 14日的 18点(UTC)
风速14节,风向
能见度10公里或以上
1500米以下无云,无积雨云
从 13日的 1400点(UTC)
风速10节,风向南转南东
能见度10公里或以上
1500米以下无云,无积雨云
从 13日的 1700点(UTC)
风速12节,风向
能见度10公里或以上
1500米以下无云,无积雨云
从 14日的 0100点(UTC)
风速10节,风向北转东北
能见度10公里或以上
1500米以下无云,无积雨云
从 14日的 0400点(UTC)
风速12节,风向西转西南
能见度10公里或以上
1500米以下无云,无积雨云
从 14日的 1200点(UTC)
风速10节,风向
能见度10公里或以上
1500米以下无云,无积雨云

TAF: YPPH 131113Z 1312/1418 19014KT CAVOK FM131400 15010KT CAVOK FM131700 10012KT CAVOK FM140100 02010KT CAVOK FM140400 24012KT CAVOK FM141200 18010KT CAVOK

超过4000个机场的气象观测和天气预报(METAR&TAF报告)。

可查询的气象台以黄色和红色小点在地图上表示。

将鼠标移到小点上方,可查看气象台名称。

然后点击查看天气观测和预报。

如需切换地图:点击带黑十字的绿色按钮放大地图;点击带横线的绿色按钮缩小地图;或者点击绿色箭头查看邻近地区的地图。


METAR-TAF: